Charlotte Roush — WDE5112 — position and weather

sailwx.info

Track history (hours):
 
Tides and Currents Weather Stations Pressure Air Temp Water Temp Dewpoint Dewpoint Depression Visibility Wind Speed Wind Dir Waves Ship Positions

Charlotte Roush

Owner: AEP River Operations LLC, Chesterfield, MO. More information available from US FCC via Universal Licensing System and Coast Guard Vessel Documentation Center.

Last reported at 2014-Dec-26 03:17 UTC. Time now 2015-Jan-27 22:59 UTC.
Position N 30°02' W 089°54'.
Warning: this ship's position is 32 days out of date.

Length 35 m; draft 3 m.

Type: Towing. MMSI: 367362230.

Date/timePositionNaut miles runAvg speedWind from/ knotsBaromVisibWave heightAir tempDewpointWater temp
2014-Dec-26 03:17N 30°02' W 089°54'4 4.1
2014-Dec-26 02:23N 30°00' W 089°58'2 2.3
2014-Dec-26 01:29N 29°60' W 090°01'1 0.5
2014-Dec-26 00:29N 29°59' W 090°01'0 0.1
2014-Dec-25 23:33N 29°59' W 090°01'0 0.0
2014-Dec-25 22:08N 29°60' W 090°01'0 0.1
2014-Dec-25 21:33N 29°59' W 090°01'2 1.7
2014-Dec-25 20:32N 29°58' W 090°02'1 0.6
2014-Dec-25 19:33N 29°57' W 090°01'1 0.9
2014-Dec-25 18:33N 29°57' W 090°01'0 0.0
2014-Dec-25 17:32N 29°57' W 090°01'0 0.0
2014-Dec-25 16:33N 29°57' W 090°01'0 0.0
2014-Dec-25 15:33N 29°57' W 090°01'0 0.0
2014-Dec-25 14:33N 29°57' W 090°01'0 0.0
2014-Dec-25 13:33N 29°57' W 090°01'3 2.9
2014-Dec-25 12:32N 29°55' W 090°04'3 0.3
2014-Dec-25 02:21N 29°57' W 090°01'  
2014-Dec-21 23:11N 30°00' W 090°47'41 0.9
2014-Dec-20 03:28N 29°57' W 090°01'5 0.2
2014-Dec-19 02:13N 29°53' W 089°58'4 2.4
2014-Dec-19 00:24N 29°57' W 090°01'4 4.5
2014-Dec-18 23:34N 29°55' W 090°05'38 3.7
2014-Dec-18 13:15N 30°00' W 090°48'2 2.4
2014-Dec-18 12:31N 29°60' W 090°50'2 2.4
2014-Dec-18 11:33N 30°00' W 090°47'7 6.4
2014-Dec-18 10:31N 30°03' W 090°40'8 6.1
2014-Dec-18 09:15N 30°03' W 090°31'21 5.0
2014-Dec-18 05:10N 29°57' W 090°08'3 5.5
2014-Dec-18 04:33N 29°55' W 090°05'4 4.1
2014-Dec-18 03:33N 29°57' W 090°01'0 0.0
2014-Dec-18 02:33N 29°57' W 090°01'0 0.0
2014-Dec-18 01:27N 29°57' W 090°01'0 0.1
2014-Dec-18 00:28N 29°57' W 090°01'  
Track history (hours):
 
Tides and Currents Weather Stations Pressure Air Temp Water Temp Dewpoint Dewpoint Depression Visibility Wind Speed Wind Dir Waves Ship Positions

Charlotte Roush

Owner: AEP River Operations LLC, Chesterfield, MO. More information available from US FCC via Universal Licensing System and Coast Guard Vessel Documentation Center.

Last reported at 2014-Dec-26 03:17 UTC. Time now 2015-Jan-27 22:59 UTC.
Position N 30°02' W 089°54'.
Warning: this ship's position is 32 days out of date.

Length 35 m; draft 3 m.

Type: Towing. MMSI: 367362230.

Date/timePositionNaut miles runAvg speedWind from/ knotsBaromVisibWave heightAir tempDewpointWater temp
2014-Dec-26 03:17N 30°02' W 089°54'4 4.1
2014-Dec-26 02:23N 30°00' W 089°58'2 2.3
2014-Dec-26 01:29N 29°60' W 090°01'1 0.5
2014-Dec-26 00:29N 29°59' W 090°01'0 0.1
2014-Dec-25 23:33N 29°59' W 090°01'0 0.0
2014-Dec-25 22:08N 29°60' W 090°01'0 0.1
2014-Dec-25 21:33N 29°59' W 090°01'2 1.7
2014-Dec-25 20:32N 29°58' W 090°02'1 0.6
2014-Dec-25 19:33N 29°57' W 090°01'1 0.9
2014-Dec-25 18:33N 29°57' W 090°01'0 0.0
2014-Dec-25 17:32N 29°57' W 090°01'0 0.0
2014-Dec-25 16:33N 29°57' W 090°01'0 0.0
2014-Dec-25 15:33N 29°57' W 090°01'0 0.0
2014-Dec-25 14:33N 29°57' W 090°01'0 0.0
2014-Dec-25 13:33N 29°57' W 090°01'3 2.9
2014-Dec-25 12:32N 29°55' W 090°04'3 0.3
2014-Dec-25 02:21N 29°57' W 090°01'  
2014-Dec-21 23:11N 30°00' W 090°47'41 0.9
2014-Dec-20 03:28N 29°57' W 090°01'5 0.2
2014-Dec-19 02:13N 29°53' W 089°58'4 2.4
2014-Dec-19 00:24N 29°57' W 090°01'4 4.5
2014-Dec-18 23:34N 29°55' W 090°05'38 3.7
2014-Dec-18 13:15N 30°00' W 090°48'2 2.4
2014-Dec-18 12:31N 29°60' W 090°50'2 2.4
2014-Dec-18 11:33N 30°00' W 090°47'7 6.4
2014-Dec-18 10:31N 30°03' W 090°40'8 6.1
2014-Dec-18 09:15N 30°03' W 090°31'21 5.0
2014-Dec-18 05:10N 29°57' W 090°08'3 5.5
2014-Dec-18 04:33N 29°55' W 090°05'4 4.1
2014-Dec-18 03:33N 29°57' W 090°01'0 0.0
2014-Dec-18 02:33N 29°57' W 090°01'0 0.0
2014-Dec-18 01:27N 29°57' W 090°01'0 0.1
2014-Dec-18 00:28N 29°57' W 090°01'  

Dump ship's entire track history